Time;durP1;ratioP1;P1;durP2;ratioP2;P2;SDS_P1;SDS_P2;PMS_P1;PMS_P2;Temp;Humidity;BMP_temperature;BMP_pressure;BME280_temperature;BME280_humidity;BME280_pressure;Samples;Min_cycle;Max_cycle;Signal;HPM_P1;HPM_P2
2021/05/06 00:07:20;;;;;;;0.32;0.25;;;;;;;;;;5021898;28;20099;-81
2021/05/06 00:33:46;;;;;;;0.30;0.20;;;;;;;;;;5053494;28;20037;-81
2021/05/06 00:36:12;;;;;;;0.30;0.30;;;;;;;;;;5052187;28;20075;-80
2021/05/06 00:38:48;;;;;;;0.32;0.30;;;;;;;;;;5053323;28;20108;-80
2021/05/06 00:44:01;;;;;;;0.17;0.17;;;;;;;;;;5052985;28;20029;-80
2021/05/06 00:46:43;;;;;;;0.32;0.32;;;;;;;;;;5051492;28;20068;-81
2021/05/06 00:54:49;;;;;;;0.30;0.30;;;;;;;;;;5052739;28;20044;-80
2021/05/06 01:03:18;;;;;;;0.57;0.28;;;;;;;;;;5052166;28;20068;-81
2021/05/06 01:05:53;;;;;;;0.20;0.20;;;;;;;;;;5051940;28;20536;-80
2021/05/06 01:08:25;;;;;;;0.10;0.10;;;;;;;;;;5051553;28;20029;-81
2021/05/06 01:13:23;;;;;;;0.88;0.22;;;;;;;;;;5050784;28;20033;-80
2021/05/06 01:15:50;;;;;;;0.13;0.13;;;;;;;;;;5052288;28;20029;-81
2021/05/06 01:18:17;;;;;;;0.88;0.30;;;;;;;;;;5033997;28;20021;-80
2021/05/06 01:20:44;;;;;;;0.10;0.10;;;;;;;;;;5051314;28;20036;-81
2021/05/06 01:23:11;;;;;;;0.30;0.30;;;;;;;;;;5052102;28;20025;-80
2021/05/06 01:25:37;;;;;;;0.22;0.22;;;;;;;;;;5050742;28;20040;-80
2021/05/06 01:28:09;;;;;;;0.17;0.17;;;;;;;;;;5052223;28;20031;-81
2021/05/06 01:30:46;;;;;;;0.30;0.30;;;;;;;;;;5050511;28;20481;-81
2021/05/06 01:33:16;;;;;;;0.20;0.20;;;;;;;;;;5051774;28;20151;-80
2021/05/06 01:36:06;;;;;;;0.85;0.40;;;;;;;;;;5051476;28;20450;-81
2021/05/06 01:38:47;;;;;;;0.80;0.40;;;;;;;;;;5050993;28;20530;-81
2021/05/06 01:42:03;;;;;;;0.13;0.13;;;;;;;;;;5050990;28;20020;-80
2021/05/06 01:44:11;;;;;;;0.30;0.20;;;;;;;;;;5042467;28;20037;-81
2021/05/06 01:47:09;;;;;;;0.88;0.40;;;;;;;;;;5050639;28;20025;-81
2021/05/06 02:00:23;;;;;;;0.30;0.30;;;;;;;;;;5051032;28;20052;-80
2021/05/06 02:02:49;;;;;;;;;;;;;;;;;;5051179;28;20021;-81
2021/05/06 02:05:15;;;;;;;0.50;0.15;;;;;;;;;;5050044;28;19967;-80
2021/05/06 02:07:43;;;;;;;0.28;0.28;;;;;;;;;;5050869;28;20353;-81
2021/05/06 02:10:11;;;;;;;1.13;0.30;;;;;;;;;;5051474;28;20021;-80
2021/05/06 02:12:38;;;;;;;0.60;0.30;;;;;;;;;;5050645;28;20036;-81
2021/05/06 02:15:11;;;;;;;0.30;0.30;;;;;;;;;;5051587;28;20021;-81
2021/05/06 02:17:38;;;;;;;0.30;0.30;;;;;;;;;;5050392;28;20085;-81
2021/05/06 02:20:05;;;;;;;0.20;0.20;;;;;;;;;;5051403;28;20357;-81
2021/05/06 02:22:31;;;;;;;0.22;0.22;;;;;;;;;;5050292;28;20032;-81
2021/05/06 02:24:57;;;;;;;0.32;0.32;;;;;;;;;;5051025;28;20037;-81
2021/05/06 02:27:23;;;;;;;0.10;0.10;;;;;;;;;;5049863;28;20017;-80
2021/05/06 02:29:49;;;;;;;0.20;0.20;;;;;;;;;;5051514;28;20035;-81
2021/05/06 02:32:16;;;;;;;0.10;0.10;;;;;;;;;;5050178;28;20031;-81
2021/05/06 02:34:42;;;;;;;0.10;0.10;;;;;;;;;;5050723;28;20512;-81
2021/05/06 02:37:09;;;;;;;0.30;0.30;;;;;;;;;;5050382;28;20039;-80
2021/05/06 02:39:35;;;;;;;0.25;0.17;;;;;;;;;;5050550;28;20025;-80
2021/05/06 02:42:01;;;;;;;0.20;0.20;;;;;;;;;;5051028;28;20021;-80
2021/05/06 02:44:27;;;;;;;0.43;0.20;;;;;;;;;;5049484;28;20073;-80
2021/05/06 02:46:55;;;;;;;0.20;0.20;;;;;;;;;;5049837;28;20104;-81
2021/05/06 02:49:22;;;;;;;0.30;0.30;;;;;;;;;;5050568;28;20033;-81
2021/05/06 02:52:00;;;;;;;0.20;0.20;;;;;;;;;;5049644;28;20021;-81
2021/05/06 02:54:31;;;;;;;0.17;0.15;;;;;;;;;;5050183;28;20036;-80
2021/05/06 02:57:11;;;;;;;0.45;0.20;;;;;;;;;;5049453;28;20065;-80
2021/05/06 03:05:06;;;;;;;0.38;0.30;;;;;;;;;;5048688;28;20514;-81
2021/05/06 03:07:34;;;;;;;0.20;0.20;;;;;;;;;;5050133;28;20040;-81
2021/05/06 03:13:10;;;;;;;0.10;0.10;;;;;;;;;;5050764;28;20194;-80
2021/05/06 03:22:39;;;;;;;1.65;0.20;;;;;;;;;;5050748;28;20040;-81
2021/05/06 03:24:10;;;;;;;0.17;0.17;;;;;;;;;;5049369;28;20025;-81
2021/05/06 03:26:37;;;;;;;1.35;0.20;;;;;;;;;;5049425;28;20078;-80
2021/05/06 03:29:07;;;;;;;0.45;0.20;;;;;;;;;;5049984;28;20021;-81
2021/05/06 03:31:53;;;;;;;0.28;0.20;;;;;;;;;;5050792;28;20460;-80
2021/05/06 04:30:57;;;;;;;0.20;0.13;;;;;;;;;;5052761;28;20079;-80
2021/05/06 04:36:23;;;;;;;0.20;0.20;;;;;;;;;;5052283;28;20043;-80
2021/05/06 04:38:50;;;;;;;0.20;0.20;;;;;;;;;;5052776;28;20398;-81
2021/05/06 04:55:09;;;;;;;0.13;0.13;;;;;;;;;;5052670;28;20101;-81
2021/05/06 05:05:31;;;;;;;0.10;0.10;;;;;;;;;;5050951;28;20044;-81
2021/05/06 05:08:04;;;;;;;0.20;0.20;;;;;;;;;;5052283;28;20036;-81
2021/05/06 05:18:42;;;;;;;0.20;0.20;;;;;;;;;;5052067;28;20441;-80
2021/05/06 05:23:20;;;;;;;0.20;0.20;;;;;;;;;;5033385;28;20033;-81
2021/05/06 05:24:10;;;;;;;0.20;0.20;;;;;;;;;;5050739;28;20074;-80
2021/05/06 05:26:36;;;;;;;0.20;0.20;;;;;;;;;;5051706;28;20033;-80
2021/05/06 05:29:02;;;;;;;0.50;0.30;;;;;;;;;;5052361;28;20024;-81
2021/05/06 05:31:28;;;;;;;0.20;0.20;;;;;;;;;;5051155;28;20033;-80
2021/05/06 05:34:03;;;;;;;0.20;0.20;;;;;;;;;;5052152;28;20578;-80
2021/05/06 05:36:31;;;;;;;0.45;0.20;;;;;;;;;;5051115;28;20115;-80
2021/05/06 05:40:06;;;;;;;0.10;0.10;;;;;;;;;;5052076;28;20029;-80
2021/05/06 05:42:10;;;;;;;0.20;0.20;;;;;;;;;;5037431;28;20691;-80
2021/05/06 05:55:16;;;;;;;2.25;0.43;;;;;;;;;;5034831;28;20035;-80
2021/05/06 05:57:42;;;;;;;0.77;0.30;;;;;;;;;;5049572;28;20555;-81
2021/05/06 06:00:09;;;;;;;1.00;0.30;;;;;;;;;;5050897;28;20450;-81
2021/05/06 06:02:38;;;;;;;0.77;0.30;;;;;;;;;;5049822;28;20093;-81
2021/05/06 06:05:04;;;;;;;0.22;0.22;;;;;;;;;;5049346;28;20518;-80
2021/05/06 06:07:30;;;;;;;0.32;0.28;;;;;;;;;;5047550;28;20098;-81
2021/05/06 06:09:56;;;;;;;1.38;0.82;;;;;;;;;;5049870;28;20029;-81
2021/05/06 06:12:22;;;;;;;0.98;0.68;;;;;;;;;;5049760;28;20029;-80
2021/05/06 06:15:15;;;;;;;2.75;0.30;;;;;;;;;;5050071;28;20025;-82
2021/05/06 06:17:43;;;;;;;0.32;0.32;;;;;;;;;;5045271;28;20037;-82
2021/05/06 06:20:10;;;;;;;0.40;0.30;;;;;;;;;;5047846;28;20021;-82
2021/05/06 06:22:36;;;;;;;1.58;0.47;;;;;;;;;;5047999;28;20031;-84
2021/05/06 06:25:03;;;;;;;2.05;0.52;;;;;;;;;;5047670;28;20502;-83
2021/05/06 06:27:30;;;;;;;3.03;0.75;;;;;;;;;;5028127;28;20398;-83
2021/05/06 06:29:57;;;;;;;2.47;0.77;;;;;;;;;;5047796;28;20028;-83
2021/05/06 06:32:23;;;;;;;2.25;0.60;;;;;;;;;;5030353;28;20036;-83
2021/05/06 06:34:49;;;;;;;1.10;0.90;;;;;;;;;;5048088;28;20021;-82
2021/05/06 06:37:16;;;;;;;1.10;0.80;;;;;;;;;;5046732;28;20017;-83
2021/05/06 06:39:43;;;;;;;3.45;1.77;;;;;;;;;;5049424;28;20056;-84
2021/05/06 06:42:09;;;;;;;6.25;2.25;;;;;;;;;;5045909;28;20399;-82
2021/05/06 06:44:36;;;;;;;2.95;0.88;;;;;;;;;;5038885;28;20075;-82
2021/05/06 06:47:07;;;;;;;1.40;1.30;;;;;;;;;;5044832;28;20048;-83
2021/05/06 06:49:33;;;;;;;1.23;1.13;;;;;;;;;;5035808;28;20227;-83
2021/05/06 06:52:00;;;;;;;1.75;1.30;;;;;;;;;;5047079;28;20560;-81
2021/05/06 06:54:27;;;;;;;2.53;1.20;;;;;;;;;;5048420;28;20028;-81
2021/05/06 06:56:53;;;;;;;3.08;0.98;;;;;;;;;;5049143;28;20048;-82
2021/05/06 06:59:19;;;;;;;2.53;0.90;;;;;;;;;;5040867;28;20770;-83
2021/05/06 07:01:45;;;;;;;1.65;1.25;;;;;;;;;;5041440;28;20479;-87
2021/05/06 07:04:11;;;;;;;3.55;1.38;;;;;;;;;;5021201;28;20033;-85
2021/05/06 07:06:38;;;;;;;2.20;1.02;;;;;;;;;;5042120;28;20029;-84
2021/05/06 07:09:05;;;;;;;2.97;1.40;;;;;;;;;;5044022;28;20044;-82
2021/05/06 07:11:31;;;;;;;5.97;1.15;;;;;;;;;;5043669;28;20054;-81
2021/05/06 07:13:57;;;;;;;2.28;1.40;;;;;;;;;;5044559;28;20393;-82
2021/05/06 07:16:24;;;;;;;2.88;1.20;;;;;;;;;;5042744;28;20040;-83
2021/05/06 07:18:50;;;;;;;1.83;1.08;;;;;;;;;;5042665;28;20116;-81
2021/05/06 07:21:16;;;;;;;2.25;0.85;;;;;;;;;;5041942;28;20029;-81
2021/05/06 07:23:42;;;;;;;2.75;0.82;;;;;;;;;;5043333;28;20103;-81
2021/05/06 07:26:08;;;;;;;1.75;1.27;;;;;;;;;;5041784;28;20080;-82
2021/05/06 07:28:35;;;;;;;2.72;1.35;;;;;;;;;;5043721;28;20029;-82
2021/05/06 07:31:03;;;;;;;1.05;0.93;;;;;;;;;;5047776;28;20446;-80
2021/05/06 07:33:29;;;;;;;1.35;1.25;;;;;;;;;;5045724;28;20519;-79
2021/05/06 07:35:56;;;;;;;23.45;2.25;;;;;;;;;;5044344;28;20118;-78
2021/05/06 07:38:23;;;;;;;3.97;1.83;;;;;;;;;;5045484;28;20063;-81
2021/05/06 07:40:49;;;;;;;1.40;1.13;;;;;;;;;;5046345;28;20048;-79
2021/05/06 07:43:16;;;;;;;1.95;1.05;;;;;;;;;;5046590;28;20105;-79
2021/05/06 07:45:42;;;;;;;3.03;1.63;;;;;;;;;;5045845;28;20049;-78
2021/05/06 07:48:08;;;;;;;1.92;1.42;;;;;;;;;;5028524;28;20557;-79
2021/05/06 07:50:35;;;;;;;4.00;1.40;;;;;;;;;;5029404;28;20039;-79
2021/05/06 07:53:07;;;;;;;2.90;1.83;;;;;;;;;;5045476;28;20591;-80
2021/05/06 07:55:33;;;;;;;2.67;1.20;;;;;;;;;;5026418;28;20400;-80
2021/05/06 07:58:00;;;;;;;2.85;1.30;;;;;;;;;;5046517;28;20041;-82
2021/05/06 08:00:26;;;;;;;3.75;0.90;;;;;;;;;;5044822;28;20039;-79
2021/05/06 08:02:53;;;;;;;5.03;2.42;;;;;;;;;;5027870;28;20036;-79
2021/05/06 08:05:20;;;;;;;2.35;1.63;;;;;;;;;;5045056;28;20542;-78
2021/05/06 08:07:46;;;;;;;4.00;1.70;;;;;;;;;;5044629;28;20117;-81
2021/05/06 08:10:13;;;;;;;3.28;1.08;;;;;;;;;;5044837;28;20029;-83
2021/05/06 08:12:39;;;;;;;1.92;1.42;;;;;;;;;;5026185;28;20052;-81
2021/05/06 08:15:08;;;;;;;2.95;1.33;;;;;;;;;;5041053;28;20033;-81
2021/05/06 08:17:38;;;;;;;1.35;1.25;;;;;;;;;;5016785;28;20028;-80
2021/05/06 08:20:06;;;;;;;1.30;1.00;;;;;;;;;;5019437;28;20352;-80
2021/05/06 08:22:32;;;;;;;2.75;1.27;;;;;;;;;;5019707;28;20021;-81
2021/05/06 08:24:58;;;;;;;2.75;0.98;;;;;;;;;;5019493;28;20467;-81
2021/05/06 08:27:24;;;;;;;3.55;1.17;;;;;;;;;;5014195;28;21637;-84
2021/05/06 08:29:51;;;;;;;4.55;1.40;;;;;;;;;;5014382;28;20897;-80
2021/05/06 08:32:17;;;;;;;2.92;1.30;;;;;;;;;;5018524;28;20874;-82
2021/05/06 08:34:43;;;;;;;4.95;1.15;;;;;;;;;;5019522;28;20041;-81
2021/05/06 08:37:09;;;;;;;3.20;1.27;;;;;;;;;;5018054;28;20017;-81
2021/05/06 08:39:35;;;;;;;2.95;0.88;;;;;;;;;;5015045;28;20844;-79
2021/05/06 08:42:02;;;;;;;3.00;1.38;;;;;;;;;;5035576;28;20036;-79
2021/05/06 08:44:31;;;;;;;2.05;1.23;;;;;;;;;;5036769;28;20070;-78
2021/05/06 08:47:11;;;;;;;3.08;0.80;;;;;;;;;;5036136;28;20488;-78
2021/05/06 08:49:38;;;;;;;2.92;0.73;;;;;;;;;;5033403;28;20028;-79
2021/05/06 08:52:05;;;;;;;2.80;0.73;;;;;;;;;;5034666;28;20456;-81
2021/05/06 08:54:31;;;;;;;2.03;1.15;;;;;;;;;;5029428;28;20083;-79
2021/05/06 08:56:58;;;;;;;2.50;1.15;;;;;;;;;;5041111;28;20045;-78
2021/05/06 08:59:24;;;;;;;2.10;0.98;;;;;;;;;;5029015;28;20527;-77
2021/05/06 09:01:52;;;;;;;2.15;0.93;;;;;;;;;;5058397;28;20033;-78
2021/05/06 09:04:18;;;;;;;1.15;1.05;;;;;;;;;;5049540;28;20088;-78
2021/05/06 09:06:57;;;;;;;2.75;0.88;;;;;;;;;;5050215;28;20549;-79
2021/05/06 09:09:24;;;;;;;3.55;1.15;;;;;;;;;;5049950;28;20112;-82
2021/05/06 09:11:54;;;;;;;2.17;1.10;;;;;;;;;;5050908;28;20033;-80
2021/05/06 09:14:34;;;;;;;3.08;0.85;;;;;;;;;;5049774;28;20048;-79
2021/05/06 09:17:00;;;;;;;3.00;0.95;;;;;;;;;;5046969;28;20055;-80
2021/05/06 09:19:26;;;;;;;1.85;1.20;;;;;;;;;;5048815;28;20033;-79
2021/05/06 09:21:53;;;;;;;1.40;1.02;;;;;;;;;;5050627;28;20028;-80
2021/05/06 09:24:23;;;;;;;2.05;1.00;;;;;;;;;;5051113;28;20067;-80
2021/05/06 09:26:52;;;;;;;3.42;0.95;;;;;;;;;;5050379;28;20021;-77
2021/05/06 09:29:34;;;;;;;2.25;0.60;;;;;;;;;;5048260;28;20105;-80
2021/05/06 09:32:09;;;;;;;1.52;1.08;;;;;;;;;;5051061;28;20395;-79
2021/05/06 09:34:36;;;;;;;1.95;1.10;;;;;;;;;;5050072;28;20021;-79
2021/05/06 09:37:02;;;;;;;5.68;0.90;;;;;;;;;;5049792;28;20036;-79
2021/05/06 09:39:29;;;;;;;1.95;1.17;;;;;;;;;;5049153;28;20032;-80
2021/05/06 09:42:08;;;;;;;1.00;0.73;;;;;;;;;;5046756;28;20032;-81
2021/05/06 09:44:50;;;;;;;2.95;0.80;;;;;;;;;;5048781;28;20044;-79
2021/05/06 09:47:18;;;;;;;2.75;0.82;;;;;;;;;;5048853;28;20051;-79
2021/05/06 09:49:44;;;;;;;1.75;0.68;;;;;;;;;;5050431;28;20033;-79
2021/05/06 09:52:10;;;;;;;3.55;1.48;;;;;;;;;;5047792;28;20031;-79
2021/05/06 09:54:44;;;;;;;4.68;1.33;;;;;;;;;;5050022;28;20025;-78
2021/05/06 09:57:11;;;;;;;1.55;1.23;;;;;;;;;;5046547;28;20045;-78
2021/05/06 09:59:39;;;;;;;1.83;1.00;;;;;;;;;;5049042;28;20025;-79
2021/05/06 10:02:13;;;;;;;4.15;0.93;;;;;;;;;;5049042;28;20029;-80
2021/05/06 10:04:41;;;;;;;2.15;1.15;;;;;;;;;;5049631;28;20083;-80
2021/05/06 10:07:14;;;;;;;1.25;1.08;;;;;;;;;;5049195;28;20119;-79
2021/05/06 10:09:49;;;;;;;1.45;0.95;;;;;;;;;;5049255;28;20049;-79
2021/05/06 10:12:15;;;;;;;0.88;0.80;;;;;;;;;;5048741;28;20036;-79
2021/05/06 10:14:42;;;;;;;7.32;1.88;;;;;;;;;;5065655;28;20024;-79
2021/05/06 10:17:08;;;;;;;5.30;1.13;;;;;;;;;;5068644;28;20035;-79
2021/05/06 10:19:34;;;;;;;2.08;0.55;;;;;;;;;;5047032;28;20029;-78
2021/05/06 10:22:01;;;;;;;1.60;0.98;;;;;;;;;;5041601;28;20048;-78
2021/05/06 10:24:28;;;;;;;1.20;1.05;;;;;;;;;;5043067;28;20040;-78
2021/05/06 10:26:54;;;;;;;2.75;1.23;;;;;;;;;;5044576;28;20090;-79
2021/05/06 10:29:21;;;;;;;2.35;1.25;;;;;;;;;;5043277;28;21807;-79
2021/05/06 10:31:47;;;;;;;1.45;1.02;;;;;;;;;;5043637;28;20033;-81
2021/05/06 10:34:14;;;;;;;1.75;1.00;;;;;;;;;;5042037;28;20055;-79
2021/05/06 10:36:40;;;;;;;4.65;1.27;;;;;;;;;;5041567;28;20078;-78
2021/05/06 10:39:13;;;;;;;2.15;0.77;;;;;;;;;;5044527;28;20029;-80
2021/05/06 10:41:39;;;;;;;4.00;0.73;;;;;;;;;;5043273;28;20025;-79
2021/05/06 10:44:07;;;;;;;2.30;0.85;;;;;;;;;;5043475;28;20259;-78
2021/05/06 10:47:02;;;;;;;2.40;0.75;;;;;;;;;;5044143;28;20508;-78
2021/05/06 10:49:28;;;;;;;1.65;1.38;;;;;;;;;;5044060;28;20086;-78
2021/05/06 10:52:01;;;;;;;1.50;0.80;;;;;;;;;;5041410;28;20431;-91
2021/05/06 10:54:41;;;;;;;0.82;0.60;;;;;;;;;;5041583;28;20952;-82
2021/05/06 10:57:18;;;;;;;1.88;1.10;;;;;;;;;;5043326;28;20049;-81
2021/05/06 10:59:45;;;;;;;1.33;0.77;;;;;;;;;;5043506;28;20102;-81
2021/05/06 11:02:12;;;;;;;2.85;0.93;;;;;;;;;;5044687;28;20032;-82
2021/05/06 11:04:38;;;;;;;0.82;0.70;;;;;;;;;;5047479;28;20106;-82
2021/05/06 11:07:13;;;;;;;1.95;1.05;;;;;;;;;;5048649;28;20468;-81
2021/05/06 11:09:43;;;;;;;1.25;1.02;;;;;;;;;;5047015;28;20087;-82
2021/05/06 11:12:28;;;;;;;1.20;1.02;;;;;;;;;;5049078;28;20079;-82
2021/05/06 11:15:00;;;;;;;1.08;0.60;;;;;;;;;;5048074;28;20037;-82
2021/05/06 11:17:35;;;;;;;4.00;0.70;;;;;;;;;;5047922;28;20037;-81
2021/05/06 11:20:01;;;;;;;3.20;1.58;;;;;;;;;;5049212;28;20037;-81
2021/05/06 11:22:43;;;;;;;9.40;1.35;;;;;;;;;;5045341;28;20225;-82
2021/05/06 11:25:41;;;;;;;3.45;0.93;;;;;;;;;;5040914;28;20063;-82
2021/05/06 11:28:16;;;;;;;1.98;0.88;;;;;;;;;;5048274;28;20063;-82
2021/05/06 11:30:45;;;;;;;2.78;1.00;;;;;;;;;;5048459;28;20037;-84
2021/05/06 11:33:17;;;;;;;3.00;1.10;;;;;;;;;;5042639;28;20025;-83
2021/05/06 11:36:03;;;;;;;2.97;1.48;;;;;;;;;;5046157;28;20021;-84
2021/05/06 11:38:38;;;;;;;3.63;1.52;;;;;;;;;;5046997;28;20069;-82
2021/05/06 11:41:05;;;;;;;4.05;0.85;;;;;;;;;;5044878;28;20032;-80
2021/05/06 11:43:32;;;;;;;1.52;1.10;;;;;;;;;;5046313;28;20064;-80
2021/05/06 11:46:08;;;;;;;0.80;0.70;;;;;;;;;;5045866;28;20144;-83
2021/05/06 11:48:50;;;;;;;2.85;1.10;;;;;;;;;;5047166;28;20120;-81
2021/05/06 11:51:27;;;;;;;4.00;1.00;;;;;;;;;;5046961;28;20036;-81
2021/05/06 11:54:12;;;;;;;3.22;1.38;;;;;;;;;;5046313;28;20112;-81
2021/05/06 11:56:39;;;;;;;3.17;1.25;;;;;;;;;;5047939;28;20124;-84
2021/05/06 11:59:08;;;;;;;3.80;1.30;;;;;;;;;;5047847;28;20030;-84
2021/05/06 12:01:35;;;;;;;2.95;0.90;;;;;;;;;;5047487;28;20523;-85
2021/05/06 12:04:01;;;;;;;1.83;1.10;;;;;;;;;;5046966;28;20029;-84
2021/05/06 12:06:29;;;;;;;3.85;1.60;;;;;;;;;;5045975;28;20045;-86
2021/05/06 12:08:56;;;;;;;1.55;1.13;;;;;;;;;;5029171;28;20041;-84
2021/05/06 12:11:22;;;;;;;1.88;1.60;;;;;;;;;;5046243;28;20479;-85
2021/05/06 12:13:51;;;;;;;1.95;1.48;;;;;;;;;;5045718;28;20029;-85
2021/05/06 12:16:18;;;;;;;1.05;0.90;;;;;;;;;;5043621;28;20490;-84
2021/05/06 12:19:08;;;;;;;1.52;1.38;;;;;;;;;;5043585;28;20069;-84
2021/05/06 12:21:34;;;;;;;1.73;1.02;;;;;;;;;;5043893;28;20129;-83
2021/05/06 12:24:01;;;;;;;1.50;1.20;;;;;;;;;;5045933;28;20464;-84
2021/05/06 12:26:28;;;;;;;1.65;1.33;;;;;;;;;;5045594;28;20049;-82
2021/05/06 12:28:54;;;;;;;3.28;1.60;;;;;;;;;;5045622;28;20037;-82
2021/05/06 12:31:20;;;;;;;3.50;1.55;;;;;;;;;;5045435;28;20029;-82
2021/05/06 12:33:46;;;;;;;2.92;1.23;;;;;;;;;;5043973;28;20044;-82
2021/05/06 12:36:13;;;;;;;1.10;0.70;;;;;;;;;;5027617;28;20391;-81
2021/05/06 12:38:40;;;;;;;7.03;1.38;;;;;;;;;;5046768;28;20029;-83
2021/05/06 12:41:07;;;;;;;1.52;1.42;;;;;;;;;;5046136;28;20039;-82
2021/05/06 12:43:34;;;;;;;2.97;0.95;;;;;;;;;;5045597;28;20028;-82
2021/05/06 12:46:03;;;;;;;3.35;1.00;;;;;;;;;;5043945;28;20133;-82
2021/05/06 12:48:35;;;;;;;2.83;1.67;;;;;;;;;;5041172;28;20040;-84
2021/05/06 12:51:05;;;;;;;1.38;0.88;;;;;;;;;;5043594;28;20033;-86
2021/05/06 12:53:31;;;;;;;3.08;0.98;;;;;;;;;;5040609;28;20137;-83
2021/05/06 12:55:58;;;;;;;1.77;1.27;;;;;;;;;;5041007;28;20898;-82
2021/05/06 12:58:28;;;;;;;4.32;2.38;;;;;;;;;;5040901;28;20057;-82
2021/05/06 13:00:55;;;;;;;4.35;3.05;;;;;;;;;;5041732;28;20037;-82
2021/05/06 13:03:34;;;;;;;4.68;2.17;;;;;;;;;;5039558;28;20028;-82
2021/05/06 13:06:08;;;;;;;6.15;2.22;;;;;;;;;;5042064;28;20045;-83
2021/05/06 13:08:34;;;;;;;2.83;2.05;;;;;;;;;;5040955;28;20060;-84
2021/05/06 13:11:05;;;;;;;2.72;2.33;;;;;;;;;;5041636;28;20045;-83
2021/05/06 13:13:37;;;;;;;4.63;2.13;;;;;;;;;;5040866;28;20507;-82
2021/05/06 13:16:03;;;;;;;1.92;1.80;;;;;;;;;;5041177;28;20036;-88
2021/05/06 13:18:29;;;;;;;3.38;2.17;;;;;;;;;;5023424;28;20035;-82
2021/05/06 13:20:55;;;;;;;1.83;1.60;;;;;;;;;;5040965;28;20107;-84
2021/05/06 13:23:30;;;;;;;5.68;1.60;;;;;;;;;;5038997;28;20492;-83
2021/05/06 13:25:56;;;;;;;2.45;1.98;;;;;;;;;;5041263;28;20048;-83
2021/05/06 13:28:32;;;;;;;3.80;2.05;;;;;;;;;;5040804;28;20032;-85
2021/05/06 13:31:07;;;;;;;4.00;2.47;;;;;;;;;;5041486;28;20060;-82
2021/05/06 13:33:33;;;;;;;4.20;2.50;;;;;;;;;;5039161;28;20094;-82
2021/05/06 13:36:08;;;;;;;2.92;2.08;;;;;;;;;;5039769;28;20037;-83
2021/05/06 13:38:54;;;;;;;7.05;2.88;;;;;;;;;;5041527;28;20033;-83
2021/05/06 13:41:24;;;;;;;5.78;3.38;;;;;;;;;;5040216;28;20071;-82
2021/05/06 13:43:51;;;;;;;3.75;3.00;;;;;;;;;;5039246;28;20021;-83
2021/05/06 13:46:17;;;;;;;5.35;2.78;;;;;;;;;;5039115;28;20036;-84
2021/05/06 13:48:44;;;;;;;3.58;3.25;;;;;;;;;;5041354;28;20036;-86
2021/05/06 13:51:11;;;;;;;3.63;3.30;;;;;;;;;;5041025;28;20020;-83
2021/05/06 13:53:38;;;;;;;4.15;2.90;;;;;;;;;;5037578;28;20029;-81
2021/05/06 13:56:04;;;;;;;3.83;2.40;;;;;;;;;;5040551;28;20064;-81
2021/05/06 13:58:31;;;;;;;3.30;2.33;;;;;;;;;;5033198;28;21394;-83
2021/05/06 14:00:57;;;;;;;5.40;2.88;;;;;;;;;;5039982;28;21077;-80
2021/05/06 14:03:23;;;;;;;3.85;2.00;;;;;;;;;;5019587;28;20360;-81
2021/05/06 14:05:49;;;;;;;2.58;2.08;;;;;;;;;;5042809;28;20068;-80
2021/05/06 14:08:18;;;;;;;4.05;1.60;;;;;;;;;;5043727;28;20075;-81
2021/05/06 14:10:44;;;;;;;1.95;1.75;;;;;;;;;;5043432;28;20021;-80
2021/05/06 14:13:10;;;;;;;2.28;1.35;;;;;;;;;;5041385;28;20037;-81
2021/05/06 14:15:36;;;;;;;3.63;1.98;;;;;;;;;;5043399;28;20531;-81
2021/05/06 14:18:03;;;;;;;2.50;1.55;;;;;;;;;;5044617;28;20586;-81
2021/05/06 14:20:29;;;;;;;3.13;1.27;;;;;;;;;;5042791;28;20053;-81
2021/05/06 14:22:55;;;;;;;2.67;1.50;;;;;;;;;;5042449;28;20478;-81
2021/05/06 14:25:21;;;;;;;1.90;1.45;;;;;;;;;;5042956;28;20041;-80
2021/05/06 14:27:48;;;;;;;1.73;1.42;;;;;;;;;;5039428;28;20574;-80
2021/05/06 14:30:14;;;;;;;2.08;1.17;;;;;;;;;;5042927;28;20083;-81
2021/05/06 14:32:40;;;;;;;3.15;1.17;;;;;;;;;;5043134;28;20024;-81
2021/05/06 14:35:06;;;;;;;1.40;1.30;;;;;;;;;;5033750;28;20045;-83
2021/05/06 14:37:32;;;;;;;2.88;1.52;;;;;;;;;;5041123;28;20685;-83
2021/05/06 14:40:00;;;;;;;1.50;1.40;;;;;;;;;;5039684;28;20055;-85
2021/05/06 14:42:26;;;;;;;2.50;2.03;;;;;;;;;;5041978;28;20059;-84
2021/05/06 14:44:52;;;;;;;2.38;1.20;;;;;;;;;;5023909;28;20032;-88
2021/05/06 14:47:19;;;;;;;2.28;0.90;;;;;;;;;;5042480;28;20029;-83
2021/05/06 14:49:45;;;;;;;2.33;1.45;;;;;;;;;;5043252;28;20184;-84
2021/05/06 14:52:11;;;;;;;3.17;1.42;;;;;;;;;;5043733;28;20025;-82
2021/05/06 14:54:37;;;;;;;2.40;1.00;;;;;;;;;;5042471;28;20064;-84
2021/05/06 14:57:04;;;;;;;1.17;1.08;;;;;;;;;;5043429;28;20057;-85
2021/05/06 14:59:30;;;;;;;2.33;1.17;;;;;;;;;;5042805;28;20492;-84
2021/05/06 15:01:56;;;;;;;2.00;1.08;;;;;;;;;;5043633;28;20040;-85
2021/05/06 15:04:22;;;;;;;3.33;0.90;;;;;;;;;;5041302;28;20044;-84
2021/05/06 15:06:48;;;;;;;18.73;3.00;;;;;;;;;;5043766;28;20484;-83
2021/05/06 15:09:14;;;;;;;9.35;2.42;;;;;;;;;;5042372;28;20025;-84
2021/05/06 15:11:40;;;;;;;5.57;1.70;;;;;;;;;;5044261;28;20025;-84
2021/05/06 15:14:07;;;;;;;1.25;1.10;;;;;;;;;;5024292;28;20136;-83
2021/05/06 15:16:33;;;;;;;3.33;1.38;;;;;;;;;;5043616;28;20033;-83
2021/05/06 15:18:59;;;;;;;1.20;1.10;;;;;;;;;;5043419;28;20040;-84
2021/05/06 15:21:25;;;;;;;2.15;1.23;;;;;;;;;;5042864;28;20965;-87
2021/05/06 15:23:51;;;;;;;4.10;1.60;;;;;;;;;;5041677;28;20069;-85
2021/05/06 15:26:17;;;;;;;4.07;1.35;;;;;;;;;;5040941;28;20065;-86
2021/05/06 15:28:43;;;;;;;9.02;2.17;;;;;;;;;;5032257;28;20454;-84
2021/05/06 15:31:09;;;;;;;1.77;0.77;;;;;;;;;;5041906;28;20063;-84
2021/05/06 15:33:35;;;;;;;4.28;2.00;;;;;;;;;;5041916;28;20094;-84
2021/05/06 15:36:01;;;;;;;8.18;1.77;;;;;;;;;;5044072;28;20060;-85
2021/05/06 15:38:28;;;;;;;15.02;3.33;;;;;;;;;;5037997;28;20111;-83
2021/05/06 15:40:54;;;;;;;16.27;4.80;;;;;;;;;;5047341;28;20036;-84
2021/05/06 15:43:20;;;;;;;13.85;3.60;;;;;;;;;;5049305;28;20033;-83
2021/05/06 15:45:47;;;;;;;7.80;2.50;;;;;;;;;;5049555;28;20120;-84
2021/05/06 15:48:14;;;;;;;8.20;2.28;;;;;;;;;;5048947;28;20029;-83
2021/05/06 15:50:40;;;;;;;6.82;2.33;;;;;;;;;;5033534;28;20029;-83
2021/05/06 15:53:06;;;;;;;6.95;1.75;;;;;;;;;;5053683;28;20029;-83
2021/05/06 15:55:33;;;;;;;12.85;2.58;;;;;;;;;;5053431;28;20116;-84
2021/05/06 15:58:05;;;;;;;2.95;2.28;;;;;;;;;;5052835;28;20388;-84
2021/05/06 16:00:32;;;;;;;6.18;2.63;;;;;;;;;;5050256;28;20369;-85
2021/05/06 16:03:03;;;;;;;12.55;2.55;;;;;;;;;;5050408;28;20028;-84
2021/05/06 16:05:29;;;;;;;5.90;2.13;;;;;;;;;;5051924;28;20037;-87
2021/05/06 16:07:59;;;;;;;12.65;2.35;;;;;;;;;;5048480;28;20032;-84
2021/05/06 16:10:25;;;;;;;4.93;2.15;;;;;;;;;;5053587;28;20028;-82
2021/05/06 16:12:52;;;;;;;3.70;2.20;;;;;;;;;;5048964;28;20036;-82
2021/05/06 16:15:19;;;;;;;2.70;1.73;;;;;;;;;;5050271;28;20048;-81
2021/05/06 16:17:45;;;;;;;6.05;1.98;;;;;;;;;;5046128;28;20084;-82
2021/05/06 16:20:17;;;;;;;5.53;2.05;;;;;;;;;;5053310;28;20027;-81
2021/05/06 16:22:44;;;;;;;5.25;2.33;;;;;;;;;;5051670;28;20031;-81
2021/05/06 16:25:14;;;;;;;2.58;1.50;;;;;;;;;;5052132;28;20104;-80
2021/05/06 16:27:41;;;;;;;2.47;1.65;;;;;;;;;;5051815;28;20021;-81
2021/05/06 16:30:10;;;;;;;3.33;1.77;;;;;;;;;;5053769;28;20021;-80
2021/05/06 16:32:38;;;;;;;3.90;1.40;;;;;;;;;;5053598;28;20361;-83
2021/05/06 16:35:07;;;;;;;2.15;1.50;;;;;;;;;;5052060;28;20048;-82
2021/05/06 16:44:55;;;;;;;9.10;2.70;;;;;;;;;;5052296;28;20047;-82
2021/05/06 16:47:21;;;;;;;8.15;2.75;;;;;;;;;;5051740;28;20175;-82
2021/05/06 16:49:47;;;;;;;5.00;1.92;;;;;;;;;;5052466;28;20028;-82
2021/05/06 16:52:15;;;;;;;1.77;1.65;;;;;;;;;;5052912;28;20025;-82
2021/05/06 16:54:44;;;;;;;7.90;2.15;;;;;;;;;;5052246;28;20029;-82
2021/05/06 16:57:11;;;;;;;2.60;1.70;;;;;;;;;;5051190;28;20514;-81
2021/05/06 16:59:37;;;;;;;3.85;2.05;;;;;;;;;;5053221;28;20025;-81
2021/05/06 17:02:05;;;;;;;4.70;2.53;;;;;;;;;;5051321;28;20029;-81
2021/05/06 17:04:31;;;;;;;3.13;2.22;;;;;;;;;;5052581;28;20025;-82
2021/05/06 17:06:59;;;;;;;3.63;2.05;;;;;;;;;;5051697;28;20033;-82
2021/05/06 17:09:25;;;;;;;2.63;1.80;;;;;;;;;;5051029;28;20035;-81
2021/05/06 17:11:51;;;;;;;3.75;2.00;;;;;;;;;;5051303;28;20452;-82
2021/05/06 17:14:17;;;;;;;2.53;1.95;;;;;;;;;;5052402;28;20095;-81
2021/05/06 17:16:44;;;;;;;2.08;1.90;;;;;;;;;;5052632;28;20029;-82
2021/05/06 17:19:10;;;;;;;4.35;1.75;;;;;;;;;;5051920;28;20025;-81
2021/05/06 17:21:36;;;;;;;5.00;2.00;;;;;;;;;;5051569;28;20021;-82
2021/05/06 17:24:03;;;;;;;2.30;1.77;;;;;;;;;;5052499;28;20382;-82
2021/05/06 17:26:30;;;;;;;2.88;1.55;;;;;;;;;;5033240;28;20461;-82
2021/05/06 17:28:57;;;;;;;4.00;1.92;;;;;;;;;;5052476;28;20021;-81
2021/05/06 17:31:23;;;;;;;1.65;1.55;;;;;;;;;;5051221;28;20033;-82
2021/05/06 17:33:49;;;;;;;2.88;2.08;;;;;;;;;;5052739;28;20047;-82
2021/05/06 17:36:16;;;;;;;2.28;2.08;;;;;;;;;;5050935;28;20032;-81
2021/05/06 17:38:42;;;;;;;3.40;2.10;;;;;;;;;;5051138;28;20009;-81
2021/05/06 17:41:08;;;;;;;4.22;2.38;;;;;;;;;;5051898;28;20112;-82
2021/05/06 17:43:34;;;;;;;3.25;1.60;;;;;;;;;;5051281;28;20091;-81
2021/05/06 17:46:00;;;;;;;2.38;1.27;;;;;;;;;;5051878;28;20033;-82
2021/05/06 17:48:26;;;;;;;2.08;1.77;;;;;;;;;;5051008;28;20041;-81
2021/05/06 17:50:53;;;;;;;5.60;1.77;;;;;;;;;;5049661;28;20029;-82
2021/05/06 17:53:19;;;;;;;1.90;1.40;;;;;;;;;;5051805;28;20484;-81